To NAV CANADA Home Page Login to a new session Search on AWWS site Feedback and Comments Disclaimer Vers la page française équivalente Tips FAQ What's new on the site To the Forecasts and Observations / NOTAM section To "File a Flight Plan" website Publications and other links Update of the User's profile FIC Telephone Numbers My Weather Data Folder Route Weather Data Regional Weather Data Local Weather Data To the Forecasts and Observations / NOTAM section
Request Generated 05/27/2016 at 14:02:59 UTC . Weather information available at that time is displayed.

METAR/TAF

MONTREAL INTL (MIRABEL)/QC    

METAR CYMX 271300Z VRB02KT 25SM FEW070 FEW140 SCT230 OVC260 17/12
A2998 RMK AC1AC1CI2CI4 SLP155 DENSITY ALT 500FT=
METAR CYMX 271200Z 03004KT 340V070 25SM FEW060 FEW140 OVC250 15/11
A2999 RMK SC1AC1CI6 SLP158=
METAR CYMX 271100Z 05004KT 360V070 40SM FEW060 FEW140 BKN230 OVC260
13/10 A2997 RMK SC1AC1CI3CI3 SLP152=

TAF AMD CYMX 271339Z 2713/2812 VRB03KT P6SM FEW070 BKN210
FM271600 24010KT P6SM BKN040
FM271800 24012KT P6SM BKN080
BECMG 2800/2802 32008KT
FM280600 VRB03KT P6SM FEW080
RMK NXT FCST BY 271800Z=
Your time UTC time
Weather data provided by Environment Canada and NAV CANADA